sensor_id;sensor_type;location;lat;lon;timestamp;pressure;altitude;pressure_sealevel;temperature;humidity
6833;BME280;3454;42.654;23.378;2024-03-22T00:00:57;62986.94;;;0.70;45.82
6833;BME280;3454;42.654;23.378;2024-03-22T00:03:22;62943.91;;;0.28;45.14
6833;BME280;3454;42.654;23.378;2024-03-22T00:05:48;62924.66;;;0.12;46.42
6833;BME280;3454;42.654;23.378;2024-03-22T00:08:13;62906.81;;;-0.05;47.21
6833;BME280;3454;42.654;23.378;2024-03-22T00:10:39;62887.84;;;-0.22;48.71
6833;BME280;3454;42.654;23.378;2024-03-22T00:13:04;62868.91;;;-0.40;48.83
6833;BME280;3454;42.654;23.378;2024-03-22T00:15:30;62857.25;;;-0.48;48.83
6833;BME280;3454;42.654;23.378;2024-03-22T00:17:55;62838.63;;;-0.68;49.59
6833;BME280;3454;42.654;23.378;2024-03-22T00:20:21;62821.56;;;-0.81;49.47
6833;BME280;3454;42.654;23.378;2024-03-22T00:22:47;62817.47;;;-0.83;49.63
6833;BME280;3454;42.654;23.378;2024-03-22T00:25:12;62843.19;;;-0.61;49.24
6833;BME280;3454;42.654;23.378;2024-03-22T00:27:38;62850.22;;;-0.55;49.60
6833;BME280;3454;42.654;23.378;2024-03-22T00:30:04;62841.34;;;-0.65;50.22
6833;BME280;3454;42.654;23.378;2024-03-22T00:32:30;62825.03;;;-0.76;50.67
6833;BME280;3454;42.654;23.378;2024-03-22T00:34:55;62817.78;;;-0.85;50.09
6833;BME280;3454;42.654;23.378;2024-03-22T00:37:21;62793.47;;;-1.08;50.20
6833;BME280;3454;42.654;23.378;2024-03-22T00:39:47;62796.47;;;-1.07;50.88
6833;BME280;3454;42.654;23.378;2024-03-22T00:42:13;62766.44;;;-1.33;51.50
6833;BME280;3454;42.654;23.378;2024-03-22T00:44:38;62752.91;;;-1.45;51.86
6833;BME280;3454;42.654;23.378;2024-03-22T00:47:04;62759.41;;;-1.39;50.76
6833;BME280;3454;42.654;23.378;2024-03-22T00:49:31;62732.16;;;-1.67;49.99
6833;BME280;3454;42.654;23.378;2024-03-22T00:51:56;62736.25;;;-1.65;50.98
6833;BME280;3454;42.654;23.378;2024-03-22T00:54:22;62723.50;;;-1.75;51.09
6833;BME280;3454;42.654;23.378;2024-03-22T00:56:48;62722.44;;;-1.76;51.26
6833;BME280;3454;42.654;23.378;2024-03-22T00:59:13;62709.47;;;-1.88;51.41
6833;BME280;3454;42.654;23.378;2024-03-22T01:01:39;62699.13;;;-1.93;51.17
6833;BME280;3454;42.654;23.378;2024-03-22T01:04:05;62688.09;;;-2.06;51.98
6833;BME280;3454;42.654;23.378;2024-03-22T01:06:30;62703.53;;;-1.94;51.86
6833;BME280;3454;42.654;23.378;2024-03-22T01:08:56;62716.50;;;-1.82;52.22
6833;BME280;3454;42.654;23.378;2024-03-22T01:11:21;62704.63;;;-1.93;51.59
6833;BME280;3454;42.654;23.378;2024-03-22T01:13:47;62706.47;;;-1.89;52.02
6833;BME280;3454;42.654;23.378;2024-03-22T01:16:12;62710.56;;;-1.87;52.10
6833;BME280;3454;42.654;23.378;2024-03-22T01:18:38;62703.22;;;-1.92;52.46
6833;BME280;3454;42.654;23.378;2024-03-22T01:21:04;62708.63;;;-1.87;53.34
6833;BME280;3454;42.654;23.378;2024-03-22T01:23:30;62722.91;;;-1.71;52.28
6833;BME280;3454;42.654;23.378;2024-03-22T01:25:56;62718.59;;;-1.75;53.19
6833;BME280;3454;42.654;23.378;2024-03-22T01:28:21;62716.19;;;-1.80;52.77
6833;BME280;3454;42.654;23.378;2024-03-22T01:30:47;62719.97;;;-1.76;52.80
6833;BME280;3454;42.654;23.378;2024-03-22T01:33:13;62714.03;;;-1.82;53.39
6833;BME280;3454;42.654;23.378;2024-03-22T01:35:39;62731.09;;;-1.68;53.53
6833;BME280;3454;42.654;23.378;2024-03-22T01:38:05;62727.75;;;-1.66;52.80
6833;BME280;3454;42.654;23.378;2024-03-22T01:40:30;62718.34;;;-1.78;52.94
6833;BME280;3454;42.654;23.378;2024-03-22T01:42:57;62747.28;;;-1.53;52.22
6833;BME280;3454;42.654;23.378;2024-03-22T01:45:22;62774.00;;;-1.26;52.83
6833;BME280;3454;42.654;23.378;2024-03-22T01:47:54;62791.28;;;-1.10;52.84
6833;BME280;3454;42.654;23.378;2024-03-22T01:50:21;62786.72;;;-1.16;52.48
6833;BME280;3454;42.654;23.378;2024-03-22T01:52:47;62774.31;;;-1.28;52.64
6833;BME280;3454;42.654;23.378;2024-03-22T01:55:14;62779.94;;;-1.20;53.06
6833;BME280;3454;42.654;23.378;2024-03-22T01:57:40;62786.19;;;-1.17;53.11
6833;BME280;3454;42.654;23.378;2024-03-22T02:00:07;62788.59;;;-1.12;53.04
6833;BME280;3454;42.654;23.378;2024-03-22T02:02:36;62796.47;;;-1.07;52.87
6833;BME280;3454;42.654;23.378;2024-03-22T02:08:01;62796.16;;;-1.05;52.50
6833;BME280;3454;42.654;23.378;2024-03-22T02:10:27;62799.41;;;-1.02;52.58
6833;BME280;3454;42.654;23.378;2024-03-22T02:12:53;62784.50;;;-1.14;53.46
6833;BME280;3454;42.654;23.378;2024-03-22T02:15:18;62784.25;;;-1.16;53.28
6833;BME280;3454;42.654;23.378;2024-03-22T02:17:44;62791.06;;;-1.12;53.57
6833;BME280;3454;42.654;23.378;2024-03-22T02:20:10;62775.38;;;-1.27;54.84
6833;BME280;3454;42.654;23.378;2024-03-22T02:22:37;62768.03;;;-1.31;54.60
6833;BME280;3454;42.654;23.378;2024-03-22T02:25:03;62765.34;;;-1.34;54.21
6833;BME280;3454;42.654;23.378;2024-03-22T02:27:30;62759.19;;;-1.42;55.33
6833;BME280;3454;42.654;23.378;2024-03-22T02:29:55;62757.03;;;-1.44;55.53
6833;BME280;3454;42.654;23.378;2024-03-22T02:32:21;62736.72;;;-1.60;56.52
6833;BME280;3454;42.654;23.378;2024-03-22T02:34:47;62723.75;;;-1.73;56.20
6833;BME280;3454;42.654;23.378;2024-03-22T02:37:12;62714.88;;;-1.83;56.98
6833;BME280;3454;42.654;23.378;2024-03-22T02:39:38;62710.56;;;-1.87;55.91
6833;BME280;3454;42.654;23.378;2024-03-22T02:42:04;62698.91;;;-1.96;56.22
6833;BME280;3454;42.654;23.378;2024-03-22T02:44:30;62704.63;;;-1.93;56.36
6833;BME280;3454;42.654;23.378;2024-03-22T02:46:55;62704.06;;;-1.93;56.62
6833;BME280;3454;42.654;23.378;2024-03-22T02:49:21;62709.19;;;-1.86;57.54
6833;BME280;3454;42.654;23.378;2024-03-22T02:51:46;62689.19;;;-2.05;57.07
6833;BME280;3454;42.654;23.378;2024-03-22T02:54:12;62681.09;;;-2.12;57.29
6833;BME280;3454;42.654;23.378;2024-03-22T02:56:38;62684.63;;;-2.11;58.16
6833;BME280;3454;42.654;23.378;2024-03-22T02:59:03;62683.56;;;-2.12;58.25
6833;BME280;3454;42.654;23.378;2024-03-22T03:01:29;62702.47;;;-1.95;57.33
6833;BME280;3454;42.654;23.378;2024-03-22T03:03:54;62696.75;;;-1.98;57.33
6833;BME280;3454;42.654;23.378;2024-03-22T03:06:20;62691.13;;;-2.05;57.89
6833;BME280;3454;42.654;23.378;2024-03-22T03:08:45;62677.59;;;-2.18;57.63
6833;BME280;3454;42.654;23.378;2024-03-22T03:11:12;62651.41;;;-2.40;58.39
6833;BME280;3454;42.654;23.378;2024-03-22T03:13:38;62650.63;;;-2.43;57.94
6833;BME280;3454;42.654;23.378;2024-03-22T03:16:04;62665.97;;;-2.26;58.85
6833;BME280;3454;42.654;23.378;2024-03-22T03:18:30;62673.59;;;-2.24;58.82
6833;BME280;3454;42.654;23.378;2024-03-22T03:20:56;62666.28;;;-2.28;59.89
6833;BME280;3454;42.654;23.378;2024-03-22T03:23:22;62662.50;;;-2.32;60.44
6833;BME280;3454;42.654;23.378;2024-03-22T03:25:47;62644.16;;;-2.49;60.77
6833;BME280;3454;42.654;23.378;2024-03-22T03:28:13;62632.28;;;-2.60;60.27
6833;BME280;3454;42.654;23.378;2024-03-22T03:30:46;62646.84;;;-2.46;60.30
6833;BME280;3454;42.654;23.378;2024-03-22T03:33:12;62643.38;;;-2.52;59.95
6833;BME280;3454;42.654;23.378;2024-03-22T03:35:37;62629.03;;;-2.63;59.71
6833;BME280;3454;42.654;23.378;2024-03-22T03:38:03;62626.34;;;-2.66;60.24
6833;BME280;3454;42.654;23.378;2024-03-22T03:40:29;62586.41;;;-3.03;60.96
6833;BME280;3454;42.654;23.378;2024-03-22T03:42:54;62599.06;;;-2.89;61.85
6833;BME280;3454;42.654;23.378;2024-03-22T03:45:20;62603.16;;;-2.87;62.56
6833;BME280;3454;42.654;23.378;2024-03-22T03:47:45;62606.06;;;-2.82;62.80
6833;BME280;3454;42.654;23.378;2024-03-22T03:50:12;62591.50;;;-2.96;63.62
6833;BME280;3454;42.654;23.378;2024-03-22T03:52:38;62594.22;;;-2.93;63.96
6833;BME280;3454;42.654;23.378;2024-03-22T03:55:04;62591.81;;;-2.98;64.38
6833;BME280;3454;42.654;23.378;2024-03-22T03:57:29;62567.53;;;-3.20;65.25
6833;BME280;3454;42.654;23.378;2024-03-22T03:59:55;62558.06;;;-3.27;65.49
6833;BME280;3454;42.654;23.378;2024-03-22T04:02:20;62554.28;;;-3.30;66.38
6833;BME280;3454;42.654;23.378;2024-03-22T04:04:46;62551.28;;;-3.31;66.06
6833;BME280;3454;42.654;23.378;2024-03-22T04:07:12;62569.16;;;-3.19;66.98
6833;BME280;3454;42.654;23.378;2024-03-22T04:09:38;62566.16;;;-3.19;66.48
6833;BME280;3454;42.654;23.378;2024-03-22T04:12:04;62550.84;;;-3.36;66.03
6833;BME280;3454;42.654;23.378;2024-03-22T04:14:30;62541.13;;;-3.45;66.48
6833;BME280;3454;42.654;23.378;2024-03-22T04:16:55;62535.19;;;-3.51;67.48
6833;BME280;3454;42.654;23.378;2024-03-22T04:19:21;62551.91;;;-3.35;67.00
6833;BME280;3454;42.654;23.378;2024-03-22T04:21:47;62559.69;;;-3.25;66.71
6833;BME280;3454;42.654;23.378;2024-03-22T04:24:13;62583.19;;;-3.06;66.00
6833;BME280;3454;42.654;23.378;2024-03-22T04:26:38;62605.00;;;-2.83;65.45
6833;BME280;3454;42.654;23.378;2024-03-22T04:29:04;62608.53;;;-2.82;65.12
6833;BME280;3454;42.654;23.378;2024-03-22T04:31:29;62613.94;;;-2.77;65.46
6833;BME280;3454;42.654;23.378;2024-03-22T04:33:56;62629.03;;;-2.63;64.38
6833;BME280;3454;42.654;23.378;2024-03-22T04:36:21;62646.31;;;-2.47;63.66
6833;BME280;3454;42.654;23.378;2024-03-22T04:38:47;62660.34;;;-2.34;62.97
6833;BME280;3454;42.654;23.378;2024-03-22T04:41:12;62665.44;;;-2.27;62.84
6833;BME280;3454;42.654;23.378;2024-03-22T04:43:38;62663.28;;;-2.29;62.34
6833;BME280;3454;42.654;23.378;2024-03-22T04:46:03;62673.28;;;-2.22;62.90
6833;BME280;3454;42.654;23.378;2024-03-22T04:48:29;62675.16;;;-2.18;62.58
6833;BME280;3454;42.654;23.378;2024-03-22T04:50:55;62685.41;;;-2.08;62.67
6833;BME280;3454;42.654;23.378;2024-03-22T04:53:21;62679.69;;;-2.11;61.75
6833;BME280;3454;42.654;23.378;2024-03-22T04:55:47;62686.50;;;-2.07;61.14
6833;BME280;3454;42.654;23.378;2024-03-22T04:58:21;62681.09;;;-2.12;62.38
6833;BME280;3454;42.654;23.378;2024-03-22T05:00:48;62699.22;;;-1.98;62.16
6833;BME280;3454;42.654;23.378;2024-03-22T05:03:14;62719.44;;;-1.77;62.20
6833;BME280;3454;42.654;23.378;2024-03-22T05:05:40;62715.41;;;-1.83;61.56
6833;BME280;3454;42.654;23.378;2024-03-22T05:08:07;62722.66;;;-1.74;61.45
6833;BME280;3454;42.654;23.378;2024-03-22T05:10:33;62731.09;;;-1.68;61.26
6833;BME280;3454;42.654;23.378;2024-03-22T05:13:00;62745.34;;;-1.52;61.11
6833;BME280;3454;42.654;23.378;2024-03-22T05:15:26;62751.59;;;-1.49;62.10
6833;BME280;3454;42.654;23.378;2024-03-22T05:17:52;62737.78;;;-1.59;59.70
6833;BME280;3454;42.654;23.378;2024-03-22T05:20:19;62703.22;;;-1.92;60.92
6833;BME280;3454;42.654;23.378;2024-03-22T05:22:44;62717.88;;;-1.83;60.67
6833;BME280;3454;42.654;23.378;2024-03-22T05:25:10;62681.63;;;-2.12;61.49
6833;BME280;3454;42.654;23.378;2024-03-22T05:27:36;62656.31;;;-2.40;62.69
6833;BME280;3454;42.654;23.378;2024-03-22T05:30:03;62639.28;;;-2.53;63.86
6833;BME280;3454;42.654;23.378;2024-03-22T05:32:30;62642.00;;;-2.51;64.80
6833;BME280;3454;42.654;23.378;2024-03-22T05:34:55;62636.28;;;-2.54;65.16
6833;BME280;3454;42.654;23.378;2024-03-22T05:37:21;62677.09;;;-2.18;64.57
6833;BME280;3454;42.654;23.378;2024-03-22T05:39:48;62688.66;;;-2.05;64.95
6833;BME280;3454;42.654;23.378;2024-03-22T05:42:15;62676.53;;;-2.19;63.99
6833;BME280;3454;42.654;23.378;2024-03-22T05:44:41;62695.91;;;-1.96;64.15
6833;BME280;3454;42.654;23.378;2024-03-22T05:47:06;62698.69;;;-1.98;63.46
6833;BME280;3454;42.654;23.378;2024-03-22T05:49:32;62707.84;;;-1.90;64.04
6833;BME280;3454;42.654;23.378;2024-03-22T05:51:57;62731.63;;;-1.67;62.52
6833;BME280;3454;42.654;23.378;2024-03-22T05:54:23;62747.28;;;-1.53;62.50
6833;BME280;3454;42.654;23.378;2024-03-22T05:56:49;62750.75;;;-1.47;62.11
6833;BME280;3454;42.654;23.378;2024-03-22T05:59:14;62775.06;;;-1.25;62.92
6833;BME280;3454;42.654;23.378;2024-03-22T06:01:40;62793.22;;;-1.10;62.09
6833;BME280;3454;42.654;23.378;2024-03-22T06:04:06;62819.47;;;-0.88;61.37
6833;BME280;3454;42.654;23.378;2024-03-22T06:06:35;62841.66;;;-0.67;60.85
6833;BME280;3454;42.654;23.378;2024-03-22T06:09:02;62862.91;;;-0.41;59.52
6833;BME280;3454;42.654;23.378;2024-03-22T06:11:37;62892.41;;;-0.16;59.04
6833;BME280;3454;42.654;23.378;2024-03-22T06:14:02;62897.53;;;-0.09;57.79
6833;BME280;3454;42.654;23.378;2024-03-22T06:16:28;62926.84;;;0.14;57.19
6833;BME280;3454;42.654;23.378;2024-03-22T06:18:53;62929.53;;;0.17;55.10
6833;BME280;3454;42.654;23.378;2024-03-22T06:21:19;62916.78;;;0.07;55.54
6833;BME280;3454;42.654;23.378;2024-03-22T06:23:50;62927.91;;;0.15;56.86
6833;BME280;3454;42.654;23.378;2024-03-22T06:26:16;63045.13;;;1.26;82.32
6833;BME280;3454;42.654;23.378;2024-03-22T06:28:42;63064.31;;;1.46;56.90
6833;BME280;3454;42.654;23.378;2024-03-22T06:31:07;63037.53;;;1.19;57.71
6833;BME280;3454;42.654;23.378;2024-03-22T06:33:33;63023.22;;;1.04;56.67
6833;BME280;3454;42.654;23.378;2024-03-22T06:35:59;63023.75;;;1.04;58.40
6833;BME280;3454;42.654;23.378;2024-03-22T06:38:25;63008.06;;;0.90;59.98
6833;BME280;3454;42.654;23.378;2024-03-22T06:40:50;62994.75;;;0.79;59.42
6833;BME280;3454;42.654;23.378;2024-03-22T06:43:16;63016.16;;;0.97;57.39
6833;BME280;3454;42.654;23.378;2024-03-22T06:45:42;63011.84;;;0.93;60.08
6833;BME280;3454;42.654;23.378;2024-03-22T06:48:08;63005.88;;;0.88;58.88
6833;BME280;3454;42.654;23.378;2024-03-22T06:50:33;63016.41;;;1.00;55.67
6833;BME280;3454;42.654;23.378;2024-03-22T06:52:59;63022.34;;;1.05;55.20
6833;BME280;3454;42.654;23.378;2024-03-22T06:55:25;63014.25;;;0.98;53.74
6833;BME280;3454;42.654;23.378;2024-03-22T06:57:50;63001.78;;;0.86;56.21
6833;BME280;3454;42.654;23.378;2024-03-22T07:00:18;63025.31;;;1.10;53.46
6833;BME280;3454;42.654;23.378;2024-03-22T07:02:43;63031.88;;;1.12;53.79
6833;BME280;3454;42.654;23.378;2024-03-22T07:05:10;63040.78;;;1.22;54.16
6833;BME280;3454;42.654;23.378;2024-03-22T07:07:37;63036.47;;;1.18;53.86
6833;BME280;3454;42.654;23.378;2024-03-22T07:10:03;63040.78;;;1.22;55.12
6833;BME280;3454;42.654;23.378;2024-03-22T07:12:32;63049.78;;;1.28;54.69
6833;BME280;3454;42.654;23.378;2024-03-22T07:14:59;63028.34;;;1.11;54.73
6833;BME280;3454;42.654;23.378;2024-03-22T07:17:25;63036.78;;;1.16;55.03
6833;BME280;3454;42.654;23.378;2024-03-22T07:19:51;63056.75;;;1.39;55.74
6833;BME280;3454;42.654;23.378;2024-03-22T07:22:18;63044.25;;;1.28;53.72
6833;BME280;3454;42.654;23.378;2024-03-22T07:24:43;63076.03;;;1.55;54.92
6833;BME280;3454;42.654;23.378;2024-03-22T07:27:10;63074.41;;;1.53;54.05
6833;BME280;3454;42.654;23.378;2024-03-22T07:29:36;63092.28;;;1.70;55.06
6833;BME280;3454;42.654;23.378;2024-03-22T07:32:01;63103.91;;;1.83;53.39
6833;BME280;3454;42.654;23.378;2024-03-22T07:34:29;63127.28;;;2.00;54.50
6833;BME280;3454;42.654;23.378;2024-03-22T07:36:54;63118.31;;;1.94;54.30
6833;BME280;3454;42.654;23.378;2024-03-22T07:39:27;63124.81;;;2.00;54.47
6833;BME280;3454;42.654;23.378;2024-03-22T07:41:52;63126.47;;;2.02;54.15
6833;BME280;3454;42.654;23.378;2024-03-22T07:44:18;63119.16;;;1.93;54.38
6833;BME280;3454;42.654;23.378;2024-03-22T07:46:46;63128.63;;;2.04;54.76
6833;BME280;3454;42.654;23.378;2024-03-22T07:49:12;63139.78;;;2.12;53.66
6833;BME280;3454;42.654;23.378;2024-03-22T07:51:38;63136.75;;;2.11;54.12
6833;BME280;3454;42.654;23.378;2024-03-22T07:54:03;63133.81;;;2.06;53.83
6833;BME280;3454;42.654;23.378;2024-03-22T07:56:29;63147.59;;;2.21;54.63
6833;BME280;3454;42.654;23.378;2024-03-22T07:58:55;63154.34;;;2.30;53.32
6833;BME280;3454;42.654;23.378;2024-03-22T08:01:21;63156.53;;;2.32;54.90
6833;BME280;3454;42.654;23.378;2024-03-22T08:03:46;63162.25;;;2.35;52.61
6833;BME280;3454;42.654;23.378;2024-03-22T08:06:12;63145.44;;;2.19;53.74
6833;BME280;3454;42.654;23.378;2024-03-22T08:08:38;63175.28;;;2.47;52.08
6833;BME280;3454;42.654;23.378;2024-03-22T08:11:04;63161.69;;;2.34;52.09
6833;BME280;3454;42.654;23.378;2024-03-22T08:13:29;63135.44;;;2.08;51.95
6833;BME280;3454;42.654;23.378;2024-03-22T08:15:56;63153.56;;;2.27;53.21
6833;BME280;3454;42.654;23.378;2024-03-22T08:18:21;63163.66;;;2.34;51.93
6833;BME280;3454;42.654;23.378;2024-03-22T08:20:47;63155.75;;;2.29;53.26
6833;BME280;3454;42.654;23.378;2024-03-22T08:23:13;63163.34;;;2.36;55.81
6833;BME280;3454;42.654;23.378;2024-03-22T08:25:39;63148.47;;;2.20;52.15
6833;BME280;3454;42.654;23.378;2024-03-22T08:28:05;63178.53;;;2.50;51.12
6833;BME280;3454;42.654;23.378;2024-03-22T08:30:30;63213.28;;;2.82;52.35
6833;BME280;3454;42.654;23.378;2024-03-22T08:32:56;63236.38;;;3.01;49.61
6833;BME280;3454;42.654;23.378;2024-03-22T08:35:22;63259.44;;;3.25;50.45
6833;BME280;3454;42.654;23.378;2024-03-22T08:37:47;63261.06;;;3.26;49.68
6833;BME280;3454;42.654;23.378;2024-03-22T08:40:12;63250.94;;;3.19;48.09
6833;BME280;3454;42.654;23.378;2024-03-22T08:42:40;63265.41;;;3.30;47.34
6833;BME280;3454;42.654;23.378;2024-03-22T08:45:06;63274.09;;;3.38;48.48
6833;BME280;3454;42.654;23.378;2024-03-22T08:47:32;63274.63;;;3.39;48.00
6833;BME280;3454;42.654;23.378;2024-03-22T08:50:00;63303.63;;;3.68;47.62
6833;BME280;3454;42.654;23.378;2024-03-22T08:52:27;63335.81;;;3.93;47.97
6833;BME280;3454;42.654;23.378;2024-03-22T08:54:54;63336.25;;;3.98;46.58
6833;BME280;3454;42.654;23.378;2024-03-22T08:57:20;63349.84;;;4.11;46.76
6833;BME280;3454;42.654;23.378;2024-03-22T08:59:48;63340.06;;;4.02;46.00
6833;BME280;3454;42.654;23.378;2024-03-22T09:02:13;63389.31;;;4.45;44.88
6833;BME280;3454;42.654;23.378;2024-03-22T09:04:40;63418.88;;;4.75;44.62
6833;BME280;3454;42.654;23.378;2024-03-22T09:07:05;63476.88;;;5.26;45.44
6833;BME280;3454;42.654;23.378;2024-03-22T09:09:31;63515.00;;;5.61;43.42
6833;BME280;3454;42.654;23.378;2024-03-22T09:11:56;63544.66;;;5.91;43.39
6833;BME280;3454;42.654;23.378;2024-03-22T09:14:22;63547.38;;;5.93;42.50
6833;BME280;3454;42.654;23.378;2024-03-22T09:16:48;63528.59;;;5.74;41.95
6833;BME280;3454;42.654;23.378;2024-03-22T09:19:14;63577.66;;;6.19;42.01
6833;BME280;3454;42.654;23.378;2024-03-22T09:21:39;63589.63;;;6.30;40.92
6833;BME280;3454;42.654;23.378;2024-03-22T09:24:05;63578.22;;;6.20;41.77
6833;BME280;3454;42.654;23.378;2024-03-22T09:26:32;63587.25;;;6.26;41.94
6833;BME280;3454;42.654;23.378;2024-03-22T09:28:58;63556.94;;;6.00;40.92
6833;BME280;3454;42.654;23.378;2024-03-22T09:31:24;63578.97;;;6.23;41.91
6833;BME280;3454;42.654;23.378;2024-03-22T09:33:49;63628.56;;;6.68;40.60
6833;BME280;3454;42.654;23.378;2024-03-22T09:36:15;63692.13;;;7.25;42.03
6833;BME280;3454;42.654;23.378;2024-03-22T09:38:41;63684.16;;;7.20;40.37
6833;BME280;3454;42.654;23.378;2024-03-22T09:41:07;63725.63;;;7.58;40.55
6833;BME280;3454;42.654;23.378;2024-03-22T09:43:33;63768.53;;;7.95;39.58
6833;BME280;3454;42.654;23.378;2024-03-22T09:46:01;63782.91;;;8.11;38.33
6833;BME280;3454;42.654;23.378;2024-03-22T09:48:26;63774.75;;;8.03;39.03
6833;BME280;3454;42.654;23.378;2024-03-22T09:50:53;63809.47;;;8.33;38.45
6833;BME280;3454;42.654;23.378;2024-03-22T09:53:20;63799.97;;;8.22;38.23
6833;BME280;3454;42.654;23.378;2024-03-22T09:55:48;63765.56;;;7.90;36.75
6833;BME280;3454;42.654;23.378;2024-03-22T09:58:14;63789.03;;;8.12;36.50
6833;BME280;3454;42.654;23.378;2024-03-22T10:00:42;63779.44;;;8.05;37.66
6833;BME280;3454;42.654;23.378;2024-03-22T10:03:10;63758.69;;;7.86;36.45
6833;BME280;3454;42.654;23.378;2024-03-22T10:05:35;63775.06;;;8.01;37.72
6833;BME280;3454;42.654;23.378;2024-03-22T10:08:02;63780.75;;;8.09;38.55
6833;BME280;3454;42.654;23.378;2024-03-22T10:10:28;63842.78;;;8.64;37.52
6833;BME280;3454;42.654;23.378;2024-03-22T10:12:54;63882.69;;;9.00;36.99
6833;BME280;3454;42.654;23.378;2024-03-22T10:15:19;63862.88;;;8.87;36.38
6833;BME280;3454;42.654;23.378;2024-03-22T10:17:46;63877.97;;;8.98;36.48
6833;BME280;3454;42.654;23.378;2024-03-22T10:20:14;63870.66;;;8.89;35.94
6833;BME280;3454;42.654;23.378;2024-03-22T10:22:48;63857.75;;;8.80;36.31
6833;BME280;3454;42.654;23.378;2024-03-22T10:25:15;63885.94;;;9.03;34.78
6833;BME280;3454;42.654;23.378;2024-03-22T10:27:41;63952.53;;;9.69;36.51
6833;BME280;3454;42.654;23.378;2024-03-22T10:30:09;64006.47;;;10.17;35.01
6833;BME280;3454;42.654;23.378;2024-03-22T10:32:36;63982.03;;;9.96;34.92
6833;BME280;3454;42.654;23.378;2024-03-22T10:35:03;63910.22;;;9.28;33.80
6833;BME280;3454;42.654;23.378;2024-03-22T10:37:33;63946.28;;;9.61;33.45
6833;BME280;3454;42.654;23.378;2024-03-22T10:40:02;63898.72;;;9.17;34.14
6833;BME280;3454;42.654;23.378;2024-03-22T10:42:36;63845.72;;;8.69;33.52
6833;BME280;3454;42.654;23.378;2024-03-22T10:45:03;63819.50;;;8.44;34.44
6833;BME280;3454;42.654;23.378;2024-03-22T10:47:30;63830.75;;;8.53;35.68
6833;BME280;3454;42.654;23.378;2024-03-22T10:50:15;63792.22;;;8.19;33.98
6833;BME280;3454;42.654;23.378;2024-03-22T10:52:48;63823.88;;;8.48;34.80
6833;BME280;3454;42.654;23.378;2024-03-22T10:55:23;63825.88;;;8.48;35.69
6833;BME280;3454;42.654;23.378;2024-03-22T10:57:51;63928.03;;;9.42;35.64
6833;BME280;3454;42.654;23.378;2024-03-22T11:00:31;63893.28;;;9.12;34.43
6833;BME280;3454;42.654;23.378;2024-03-22T11:02:57;63842.78;;;8.64;34.09
6833;BME280;3454;42.654;23.378;2024-03-22T11:05:26;63896.22;;;9.17;35.86
6833;BME280;3454;42.654;23.378;2024-03-22T11:08:04;63958.66;;;9.70;34.33
6833;BME280;3454;42.654;23.378;2024-03-22T11:10:34;63925.28;;;9.40;34.88
6833;BME280;3454;42.654;23.378;2024-03-22T11:13:01;63915.69;;;9.33;35.07
6833;BME280;3454;42.654;23.378;2024-03-22T11:15:29;63920.06;;;9.37;34.08
6833;BME280;3454;42.654;23.378;2024-03-22T11:17:54;63970.13;;;9.81;33.57
6833;BME280;3454;42.654;23.378;2024-03-22T11:20:21;63950.66;;;9.65;33.01
6833;BME280;3454;42.654;23.378;2024-03-22T11:22:46;63937.22;;;9.55;35.34
6833;BME280;3454;42.654;23.378;2024-03-22T11:25:13;63987.84;;;9.99;34.83
6833;BME280;3454;42.654;23.378;2024-03-22T11:27:40;64042.03;;;10.49;33.58
6833;BME280;3454;42.654;23.378;2024-03-22T11:30:07;64007.34;;;10.15;32.51
6833;BME280;3454;42.654;23.378;2024-03-22T11:32:33;64031.63;;;10.40;33.32
6833;BME280;3454;42.654;23.378;2024-03-22T11:35:11;64069.94;;;10.75;33.30
6833;BME280;3454;42.654;23.378;2024-03-22T11:37:56;64073.97;;;10.81;33.43
6833;BME280;3454;42.654;23.378;2024-03-22T11:40:25;64033.28;;;10.41;33.40
6833;BME280;3454;42.654;23.378;2024-03-22T11:42:52;64031.97;;;10.38;32.56
6833;BME280;3454;42.654;23.378;2024-03-22T11:45:20;64036.34;;;10.42;33.04
6833;BME280;3454;42.654;23.378;2024-03-22T11:47:47;64088.56;;;10.92;31.44
6833;BME280;3454;42.654;23.378;2024-03-22T11:50:13;64084.72;;;10.88;32.05
6833;BME280;3454;42.654;23.378;2024-03-22T11:52:43;64043.13;;;10.50;31.67
6833;BME280;3454;42.654;23.378;2024-03-22T11:55:13;63980.19;;;9.92;31.18
6833;BME280;3454;42.654;23.378;2024-03-22T11:57:40;64071.59;;;10.76;31.14
6833;BME280;3454;42.654;23.378;2024-03-22T12:00:06;64127.97;;;11.28;31.04
6833;BME280;3454;42.654;23.378;2024-03-22T12:02:38;64171.81;;;11.68;30.64
6833;BME280;3454;42.654;23.378;2024-03-22T12:05:04;64171.81;;;11.68;32.67
6833;BME280;3454;42.654;23.378;2024-03-22T12:07:31;64221.16;;;12.14;31.32
6833;BME280;3454;42.654;23.378;2024-03-22T12:09:58;64251.28;;;12.41;29.74
6833;BME280;3454;42.654;23.378;2024-03-22T12:12:23;64241.97;;;12.33;28.80
6833;BME280;3454;42.654;23.378;2024-03-22T12:14:49;64246.69;;;12.35;29.27
6833;BME280;3454;42.654;23.378;2024-03-22T12:17:16;64278.16;;;12.66;28.36
6833;BME280;3454;42.654;23.378;2024-03-22T12:19:42;64319.88;;;13.04;29.13
6833;BME280;3454;42.654;23.378;2024-03-22T12:22:08;64328.66;;;13.12;28.39
6833;BME280;3454;42.654;23.378;2024-03-22T12:24:34;64312.16;;;12.97;29.53
6833;BME280;3454;42.654;23.378;2024-03-22T12:26:59;64265.00;;;12.54;28.80
6833;BME280;3454;42.654;23.378;2024-03-22T12:29:25;64254.03;;;12.44;28.18
6833;BME280;3454;42.654;23.378;2024-03-22T12:31:50;64240.88;;;12.32;28.14
6833;BME280;3454;42.654;23.378;2024-03-22T12:34:16;64265.00;;;12.54;28.70
6833;BME280;3454;42.654;23.378;2024-03-22T12:36:42;64241.97;;;12.33;28.33
6833;BME280;3454;42.654;23.378;2024-03-22T12:39:09;64190.47;;;11.86;28.68
6833;BME280;3454;42.654;23.378;2024-03-22T12:41:35;64191.31;;;11.84;28.93
6833;BME280;3454;42.654;23.378;2024-03-22T12:44:01;64241.97;;;12.33;28.75
6833;BME280;3454;42.654;23.378;2024-03-22T12:46:27;64282.56;;;12.70;28.30
6833;BME280;3454;42.654;23.378;2024-03-22T12:48:53;64252.38;;;12.42;28.46
6833;BME280;3454;42.654;23.378;2024-03-22T12:51:19;64302.28;;;12.88;29.88
6833;BME280;3454;42.654;23.378;2024-03-22T12:53:45;64312.72;;;12.98;28.53
6833;BME280;3454;42.654;23.378;2024-03-22T12:56:11;64316.53;;;13.01;28.53
6833;BME280;3454;42.654;23.378;2024-03-22T12:58:36;64287.28;;;12.72;29.27
6833;BME280;3454;42.654;23.378;2024-03-22T13:01:02;64342.38;;;13.25;29.57
6833;BME280;3454;42.654;23.378;2024-03-22T13:03:29;64361.78;;;13.45;28.49
6833;BME280;3454;42.654;23.378;2024-03-22T13:05:54;64433.69;;;14.11;27.56
6833;BME280;3454;42.654;23.378;2024-03-22T13:08:20;64483.50;;;14.54;27.50
6833;BME280;3454;42.654;23.378;2024-03-22T13:10:46;64450.53;;;14.24;27.39
6833;BME280;3454;42.654;23.378;2024-03-22T13:13:13;64445.56;;;14.19;27.95